createdAt,value
2018-09-25T21:02:22.961Z,100107.83
2018-09-25T21:04:56.573Z,100114.75
2018-09-25T21:07:30.157Z,100118.78
2018-09-25T21:10:03.763Z,100117.04
2018-09-25T21:12:37.370Z,100114.47
2018-09-25T21:15:11.508Z,100113.09
2018-09-25T21:17:45.072Z,100115.41
2018-09-25T21:20:18.582Z,100116.44
2018-09-25T21:22:52.130Z,100118.39
2018-09-25T21:25:25.700Z,100110.80
2018-09-25T21:27:59.120Z,100115.37
2018-09-25T21:30:32.639Z,100114.59
2018-09-25T21:33:06.308Z,100109.69
2018-09-25T21:35:39.883Z,100112.17
2018-09-25T21:38:13.438Z,100120.48
2018-09-25T21:40:47.169Z,100115.15
2018-09-25T21:43:20.644Z,100117.21
2018-09-25T21:45:54.152Z,100114.09
2018-09-25T21:48:29.286Z,100116.22
2018-09-25T21:51:02.978Z,100117.47
2018-09-25T21:53:36.418Z,100118.10
2018-09-25T21:56:10.015Z,100115.09
2018-09-25T21:58:43.709Z,100107.42
2018-09-25T22:01:17.090Z,100117.67
2018-09-25T22:03:50.621Z,100110.00
2018-09-25T22:06:24.079Z,100107.79
2018-09-25T22:08:57.504Z,100106.78
2018-09-25T22:11:31.130Z,100108.45
2018-09-25T22:14:04.537Z,100109.47
2018-09-25T22:16:38.143Z,100099.16
2018-09-25T22:19:11.963Z,100098.54
2018-09-25T22:21:45.438Z,100100.09
2018-09-25T22:24:19.531Z,100097.84
2018-09-25T22:26:52.986Z,100095.15
2018-09-25T22:29:26.405Z,100087.06
2018-09-25T22:31:59.896Z,100085.35
2018-09-25T22:34:33.327Z,100089.11
2018-09-25T22:37:06.841Z,100080.53
2018-09-25T22:39:40.410Z,100085.64
2018-09-25T22:42:13.857Z,100084.70
2018-09-25T22:44:47.448Z,100083.84
2018-09-25T22:47:21.072Z,100086.45
2018-09-25T22:49:54.604Z,100080.36
2018-09-25T22:52:28.206Z,100076.39
2018-09-25T22:55:01.782Z,100080.14
2018-09-25T22:57:35.266Z,100079.17
2018-09-25T23:00:08.820Z,100073.70
2018-09-25T23:02:42.342Z,100078.06
2018-09-25T23:05:15.906Z,100073.70
2018-09-25T23:07:49.453Z,100076.88
2018-09-25T23:10:22.838Z,100072.86
2018-09-25T23:12:56.273Z,100080.03
2018-09-25T23:15:29.869Z,100087.28
2018-09-25T23:18:03.481Z,100090.98
2018-09-25T23:20:37.153Z,100104.59
2018-09-25T23:23:10.783Z,100092.72
2018-09-25T23:25:44.212Z,100092.72
2018-09-25T23:28:17.723Z,100084.64
2018-09-25T23:37:43.556Z,100083.69
2018-09-25T23:41:18.870Z,100083.89
2018-09-25T23:45:59.136Z,100085.09
2018-09-25T23:48:37.046Z,100085.36
2018-09-25T23:51:11.870Z,100078.02
2018-09-25T23:53:46.611Z,100091.95
2018-09-25T23:57:19.054Z,100098.92
2018-09-25T23:59:49.614Z,100096.27
